createdAt,value
2018-08-16T00:00:56.244Z,18.50
2018-08-16T00:01:56.024Z,18.55
2018-08-16T00:02:56.542Z,18.56
2018-08-16T00:03:55.954Z,18.56
2018-08-16T00:04:56.698Z,18.59
2018-08-16T00:05:56.306Z,18.60
2018-08-16T00:06:55.775Z,18.62
2018-08-16T00:07:56.662Z,18.63
2018-08-16T00:08:56.123Z,18.65
2018-08-16T00:09:55.512Z,18.68
2018-08-16T00:11:17.644Z,18.70
2018-08-16T00:12:18.524Z,18.70
2018-08-16T00:13:18.503Z,18.73
2018-08-16T00:14:18.632Z,18.73
2018-08-16T00:15:18.454Z,18.74
2018-08-16T00:16:18.136Z,18.75
2018-08-16T00:17:40.231Z,18.75
2018-08-16T00:18:39.908Z,18.75
2018-08-16T00:19:39.541Z,18.75
2018-08-16T00:21:01.888Z,18.77
2018-08-16T00:22:02.679Z,18.77
2018-08-16T00:23:02.703Z,18.78
2018-08-16T00:24:02.194Z,18.77
2018-08-16T00:25:01.760Z,18.78
2018-08-16T00:26:02.295Z,18.77
2018-08-16T00:27:01.771Z,18.74
2018-08-16T00:28:02.332Z,18.74
2018-08-16T00:29:01.845Z,18.75
2018-08-16T00:30:01.861Z,18.73
2018-08-16T00:31:02.597Z,18.70
2018-08-16T00:32:02.047Z,18.70
2018-08-16T00:33:01.543Z,18.65
2018-08-16T00:34:02.208Z,18.63
2018-08-16T00:35:01.549Z,18.59
2018-08-16T00:36:01.944Z,18.56
2018-08-16T00:37:01.555Z,18.55
2018-08-16T00:38:01.969Z,18.53
2018-08-16T00:39:01.554Z,18.52
2018-08-16T00:40:02.146Z,18.53
2018-08-16T00:41:01.554Z,18.53
2018-08-16T00:42:23.741Z,18.55
2018-08-16T00:43:45.895Z,18.55
2018-08-16T00:44:46.361Z,18.55
2018-08-16T00:45:46.115Z,18.56
2018-08-16T00:46:46.778Z,18.56
2018-08-16T00:48:08.165Z,18.58
2018-08-16T00:49:08.985Z,18.55
2018-08-16T00:50:08.474Z,18.55
2018-08-16T00:51:08.348Z,18.53
2018-08-16T00:52:08.065Z,18.53
2018-08-16T00:53:31.967Z,18.52
2018-08-16T00:54:31.716Z,18.47
2018-08-16T00:55:53.169Z,18.45
2018-08-16T00:56:53.075Z,18.44
2018-08-16T00:57:53.708Z,18.41
2018-08-16T00:59:14.477Z,18.38
2018-08-16T01:00:36.187Z,18.35
2018-08-16T01:01:36.861Z,18.34
2018-08-16T01:02:36.637Z,18.31
2018-08-16T01:03:36.772Z,18.29
2018-08-16T01:04:36.744Z,18.29
2018-08-16T01:06:41.613Z,18.28
2018-08-16T01:07:42.698Z,18.26
2018-08-16T01:08:42.135Z,18.26
2018-08-16T01:09:41.776Z,18.26
2018-08-16T01:10:42.475Z,18.25
2018-08-16T01:11:42.349Z,18.23
2018-08-16T01:12:42.193Z,18.22
2018-08-16T01:13:41.823Z,18.19
2018-08-16T01:14:42.595Z,18.16
2018-08-16T01:15:42.531Z,18.15
2018-08-16T01:17:03.953Z,18.11
2018-08-16T01:18:04.713Z,18.08
2018-08-16T01:19:04.672Z,18.04
2018-08-16T01:20:04.408Z,18.03
2018-08-16T01:21:03.851Z,18.03
2018-08-16T01:22:04.536Z,18.01
2018-08-16T01:23:04.530Z,17.98
2018-08-16T01:24:04.103Z,17.94
2018-08-16T01:25:03.726Z,17.92
2018-08-16T01:26:04.619Z,17.89
2018-08-16T01:27:04.724Z,17.87
2018-08-16T01:28:04.378Z,17.86
2018-08-16T01:29:04.020Z,17.85
2018-08-16T01:30:04.388Z,17.83
2018-08-16T01:31:03.840Z,17.82
2018-08-16T01:32:04.763Z,17.79
2018-08-16T01:33:04.442Z,17.76
2018-08-16T01:34:04.065Z,17.76
2018-08-16T01:35:03.577Z,17.71
2018-08-16T01:36:04.089Z,17.70
2018-08-16T01:37:03.952Z,17.68
2018-08-16T01:38:03.560Z,17.65
2018-08-16T01:39:04.259Z,17.63
2018-08-16T01:40:04.047Z,17.60
2018-08-16T01:41:03.677Z,17.57
2018-08-16T01:42:04.647Z,17.54
2018-08-16T01:43:04.936Z,17.54
2018-08-16T01:44:03.960Z,17.51
2018-08-16T01:45:04.552Z,17.49
2018-08-16T01:46:04.215Z,17.48
2018-08-16T01:47:03.854Z,17.46
2018-08-16T01:48:04.403Z,17.45
2018-08-16T01:49:03.805Z,17.44
2018-08-16T01:50:04.196Z,17.41
2018-08-16T01:51:03.576Z,17.38
2018-08-16T01:52:04.248Z,17.39
2018-08-16T01:53:03.891Z,17.38
2018-08-16T01:54:03.780Z,17.34
2018-08-16T01:55:04.498Z,17.36
2018-08-16T01:56:04.215Z,17.34
2018-08-16T01:57:03.868Z,17.33
2018-08-16T01:58:03.837Z,17.31
2018-08-16T01:59:04.305Z,17.26
2018-08-16T02:00:03.918Z,17.26
2018-08-16T02:01:04.445Z,17.26
2018-08-16T02:02:04.032Z,17.26
2018-08-16T02:03:24.575Z,17.23
2018-08-16T02:04:25.493Z,17.22
2018-08-16T02:05:46.656Z,17.19
2018-08-16T02:06:47.450Z,17.16
2018-08-16T02:08:08.139Z,17.15
2018-08-16T02:09:08.720Z,17.12
2018-08-16T02:10:08.313Z,17.11
2018-08-16T02:11:08.788Z,17.09
2018-08-16T02:12:08.830Z,17.08
2018-08-16T02:13:08.745Z,17.06
2018-08-16T02:14:08.839Z,17.08
2018-08-16T02:15:08.525Z,17.06
2018-08-16T02:16:08.952Z,17.06
2018-08-16T02:17:08.625Z,17.05
2018-08-16T02:18:08.354Z,17.06
2018-08-16T02:19:29.892Z,17.05
2018-08-16T02:20:30.680Z,17.04
2018-08-16T02:21:30.338Z,17.02
2018-08-16T02:22:31.075Z,17.04
2018-08-16T02:24:14.238Z,17.02
2018-08-16T02:25:15.016Z,17.02
2018-08-16T02:26:14.717Z,16.99
2018-08-16T02:27:35.914Z,16.94
2018-08-16T02:28:36.683Z,16.93
2018-08-16T02:29:36.091Z,16.94
2018-08-16T02:30:36.518Z,16.91
2018-08-16T02:31:36.180Z,16.91
2018-08-16T02:32:36.949Z,16.91
2018-08-16T02:33:36.569Z,16.91
2018-08-16T02:34:57.386Z,16.90
2018-08-16T02:36:19.210Z,16.89
2018-08-16T02:37:19.983Z,16.89
2018-08-16T02:38:20.421Z,16.89
2018-08-16T02:39:20.138Z,16.89
2018-08-16T02:40:19.386Z,16.87
2018-08-16T02:41:41.432Z,16.87
2018-08-16T02:42:41.941Z,16.90
2018-08-16T02:44:03.357Z,16.91
2018-08-16T02:45:04.087Z,16.87
2018-08-16T02:46:03.467Z,16.86
2018-08-16T02:47:04.048Z,16.81
2018-08-16T02:48:03.581Z,16.79
2018-08-16T02:49:03.457Z,16.79
2018-08-16T02:50:03.916Z,16.76
2018-08-16T02:51:25.218Z,16.76
2018-08-16T02:52:25.651Z,16.75
2018-08-16T02:53:26.568Z,16.75
2018-08-16T02:54:47.336Z,16.72
2018-08-16T02:55:48.181Z,16.68
2018-08-16T02:57:09.678Z,16.68
2018-08-16T02:58:10.497Z,16.66
2018-08-16T02:59:52.939Z,16.66
2018-08-16T03:01:10.935Z,16.71
2018-08-16T03:02:21.439Z,16.71
2018-08-16T03:03:18.334Z,16.68
2018-08-16T03:04:18.208Z,16.68
2018-08-16T03:05:17.699Z,16.66
2018-08-16T03:06:18.423Z,16.66
2018-08-16T03:07:17.878Z,16.69
2018-08-16T03:08:17.445Z,16.68
2018-08-16T03:09:18.094Z,16.66
2018-08-16T03:10:17.774Z,16.61
2018-08-16T03:11:17.197Z,16.65
2018-08-16T03:12:17.661Z,16.61
2018-08-16T03:13:17.441Z,16.61
2018-08-16T03:14:17.821Z,16.64
2018-08-16T03:15:17.285Z,16.65
2018-08-16T03:16:17.689Z,16.65
2018-08-16T03:17:18.150Z,16.64
2018-08-16T03:18:17.957Z,16.61
2018-08-16T03:19:17.631Z,16.61
2018-08-16T03:20:18.047Z,16.60
2018-08-16T03:21:17.709Z,16.58
2018-08-16T03:22:18.183Z,16.57
2018-08-16T03:23:17.678Z,16.57
2018-08-16T03:24:18.203Z,16.54
2018-08-16T03:25:18.073Z,16.54
2018-08-16T03:26:17.575Z,16.51
2018-08-16T03:27:39.278Z,16.50
2018-08-16T03:28:39.861Z,16.50
2018-08-16T03:29:39.465Z,16.49
2018-08-16T03:31:01.443Z,16.51
2018-08-16T03:32:23.070Z,16.53
2018-08-16T03:33:23.513Z,16.53
2018-08-16T03:34:45.219Z,16.53
2018-08-16T03:35:45.733Z,16.51
2018-08-16T03:36:46.239Z,16.50
2018-08-16T03:37:45.901Z,16.50
2018-08-16T03:38:45.491Z,16.49
2018-08-16T03:39:45.991Z,16.49
2018-08-16T03:40:45.409Z,16.47
2018-08-16T03:41:45.827Z,16.49
2018-08-16T03:42:46.175Z,16.50
2018-08-16T03:43:45.693Z,16.49
2018-08-16T03:44:46.007Z,16.47
2018-08-16T03:45:45.910Z,16.43
2018-08-16T03:46:46.432Z,16.43
2018-08-16T03:47:46.346Z,16.42
2018-08-16T03:48:45.963Z,16.41
2018-08-16T03:49:45.807Z,16.41
2018-08-16T03:50:45.261Z,16.41
2018-08-16T03:51:46.288Z,16.41
2018-08-16T03:52:45.868Z,16.41
2018-08-16T03:53:45.324Z,16.42
2018-08-16T03:54:45.841Z,16.41
2018-08-16T03:55:45.383Z,16.41
2018-08-16T03:57:07.119Z,16.42
2018-08-16T03:58:07.676Z,16.42
2018-08-16T03:59:07.255Z,16.42
2018-08-16T04:00:07.740Z,16.42
2018-08-16T04:01:07.131Z,16.41
2018-08-16T04:02:07.560Z,16.39
2018-08-16T04:03:07.357Z,16.39
2018-08-16T04:04:07.920Z,16.43
2018-08-16T04:05:07.417Z,16.43
2018-08-16T04:06:08.234Z,16.41
2018-08-16T04:07:07.881Z,16.42
2018-08-16T04:08:50.343Z,16.46
2018-08-16T04:10:12.255Z,16.43
2018-08-16T04:11:12.592Z,16.42
2018-08-16T04:12:34.375Z,16.39
2018-08-16T04:13:35.384Z,16.38
2018-08-16T04:14:35.288Z,16.38
2018-08-16T04:15:34.726Z,16.38
2018-08-16T04:16:56.513Z,16.36
2018-08-16T04:17:57.537Z,16.38
2018-08-16T04:18:56.946Z,16.41
2018-08-16T04:19:57.033Z,16.41
2018-08-16T04:20:56.772Z,16.38
2018-08-16T04:21:57.281Z,16.39
2018-08-16T04:22:57.048Z,16.39
2018-08-16T04:23:56.953Z,16.39
2018-08-16T04:24:56.893Z,16.42
2018-08-16T04:25:57.649Z,16.43
2018-08-16T04:26:57.531Z,16.42
2018-08-16T04:27:57.356Z,16.42
2018-08-16T04:28:57.084Z,16.46
2018-08-16T04:29:56.878Z,16.46
2018-08-16T04:30:56.830Z,16.47
2018-08-16T04:31:58.227Z,16.46
2018-08-16T04:32:56.793Z,16.50
2018-08-16T04:33:57.703Z,16.51
2018-08-16T04:34:57.582Z,16.50
2018-08-16T04:35:57.477Z,16.51
2018-08-16T04:36:57.270Z,16.54
2018-08-16T04:37:56.919Z,16.56
2018-08-16T04:38:57.666Z,16.57
2018-08-16T04:40:19.324Z,16.60
2018-08-16T04:41:23.440Z,16.61
2018-08-16T04:42:18.936Z,16.65
2018-08-16T04:43:19.694Z,16.66
2018-08-16T04:44:19.250Z,16.66
2018-08-16T04:45:40.922Z,16.66
2018-08-16T04:46:44.497Z,16.66
2018-08-16T04:48:03.116Z,16.71
2018-08-16T04:49:03.058Z,16.72
2018-08-16T04:50:03.030Z,16.74
2018-08-16T04:51:03.009Z,16.75
2018-08-16T04:52:02.840Z,16.76
2018-08-16T04:53:03.033Z,16.76
2018-08-16T04:54:25.897Z,16.81
2018-08-16T04:55:27.019Z,16.83
2018-08-16T04:56:25.531Z,16.83
2018-08-16T04:57:25.503Z,16.86
2018-08-16T04:58:25.658Z,16.87
2018-08-16T05:00:14.646Z,16.93
2018-08-16T05:01:15.861Z,16.93
2018-08-16T05:02:15.079Z,16.97
2018-08-16T05:03:16.448Z,16.97
2018-08-16T05:04:15.102Z,17.02
2018-08-16T05:05:14.920Z,17.06
2018-08-16T05:06:14.700Z,17.08
2018-08-16T05:07:15.511Z,17.11
2018-08-16T05:08:15.405Z,17.12
2018-08-16T05:09:15.234Z,17.15
2018-08-16T05:10:15.154Z,17.19
2018-08-16T05:11:16.548Z,17.22
2018-08-16T05:12:15.050Z,17.26
2018-08-16T05:13:14.958Z,17.26
2018-08-16T05:14:14.802Z,17.29
2018-08-16T05:15:36.323Z,17.30
2018-08-16T05:16:36.977Z,17.33
2018-08-16T05:17:58.393Z,17.36
2018-08-16T05:18:57.965Z,17.39
2018-08-16T05:19:58.676Z,17.42
2018-08-16T05:20:58.296Z,17.44
2018-08-16T05:21:58.933Z,17.45
2018-08-16T05:22:58.621Z,17.45
2018-08-16T05:23:58.470Z,17.48
2018-08-16T05:24:58.151Z,17.52
2018-08-16T05:25:58.626Z,17.59
2018-08-16T05:26:58.563Z,17.65
2018-08-16T05:27:58.282Z,17.71
2018-08-16T05:28:58.274Z,17.79
2018-08-16T05:29:59.097Z,17.80
2018-08-16T05:30:58.796Z,17.80
2018-08-16T05:31:59.553Z,17.85
2018-08-16T05:32:58.419Z,17.89
2018-08-16T05:33:57.892Z,17.94
2018-08-16T05:34:58.632Z,18.03
2018-08-16T05:36:19.897Z,18.18
2018-08-16T05:37:20.446Z,18.31
2018-08-16T05:38:20.625Z,18.43
2018-08-16T05:39:20.457Z,18.55
2018-08-16T05:40:20.272Z,18.65
2018-08-16T05:41:20.228Z,18.77
2018-08-16T05:42:20.183Z,18.90
2018-08-16T05:43:19.871Z,19.02
2018-08-16T05:44:20.448Z,19.18
2018-08-16T05:45:20.804Z,19.33
2018-08-16T05:46:20.379Z,19.37
2018-08-16T05:47:20.024Z,19.41
2018-08-16T05:48:20.717Z,19.51
2018-08-16T05:49:42.033Z,19.66
2018-08-16T05:51:04.633Z,19.77
2018-08-16T05:51:47.078Z,19.84
2018-08-16T05:53:31.218Z,19.94
2018-08-16T05:54:32.388Z,20.14
2018-08-16T05:55:32.038Z,20.32
2018-08-16T05:56:31.622Z,20.47
2018-08-16T05:57:31.299Z,20.62
2018-08-16T05:58:31.102Z,20.72
2018-08-16T05:59:31.804Z,20.90
2018-08-16T06:00:31.442Z,21.03
2018-08-16T06:01:31.118Z,21.03
2018-08-16T06:02:31.860Z,21.12
2018-08-16T06:03:31.416Z,21.27
2018-08-16T06:04:31.199Z,21.40
2018-08-16T06:05:31.834Z,21.55
2018-08-16T06:06:31.451Z,21.62
2018-08-16T06:07:32.067Z,21.72
2018-08-16T06:08:32.364Z,21.87
2018-08-16T06:09:31.952Z,21.92
2018-08-16T06:10:31.421Z,21.95
2018-08-16T06:11:31.285Z,22.08
2018-08-16T06:12:31.938Z,22.30
2018-08-16T06:13:31.742Z,22.47
2018-08-16T06:14:31.521Z,22.60
2018-08-16T06:15:31.581Z,22.80
2018-08-16T06:16:31.378Z,22.91
2018-08-16T06:17:52.572Z,22.88
2018-08-16T06:18:53.278Z,22.78
2018-08-16T06:20:14.868Z,22.80
2018-08-16T06:21:15.564Z,22.88
2018-08-16T06:22:15.296Z,22.98
2018-08-16T06:23:14.833Z,23.02
2018-08-16T06:24:36.767Z,23.12
2018-08-16T06:25:37.447Z,23.10
2018-08-16T06:26:37.245Z,23.05
2018-08-16T06:27:58.475Z,23.05
2018-08-16T06:28:59.323Z,23.00
2018-08-16T06:29:58.966Z,23.21
2018-08-16T06:30:58.829Z,23.47
2018-08-16T06:31:58.462Z,23.65
2018-08-16T06:32:59.519Z,23.69
2018-08-16T06:33:59.249Z,23.76
2018-08-16T06:34:58.891Z,23.84
2018-08-16T06:35:58.925Z,24.05
2018-08-16T06:36:58.453Z,24.23
2018-08-16T06:37:59.350Z,24.48
2018-08-16T06:38:59.304Z,24.57
2018-08-16T06:39:59.165Z,24.73
2018-08-16T06:40:59.772Z,24.65
2018-08-16T06:41:58.847Z,24.54
2018-08-16T06:43:20.365Z,24.53
2018-08-16T06:44:41.880Z,24.81
2018-08-16T06:45:42.738Z,24.93
2018-08-16T06:47:03.906Z,25.07
2018-08-16T06:48:05.098Z,25.21
2018-08-16T06:49:03.921Z,25.35
2018-08-16T06:50:29.324Z,25.50
2018-08-16T06:51:29.572Z,25.58
2018-08-16T06:52:29.605Z,25.62
2018-08-16T06:53:29.625Z,25.58
2018-08-16T06:54:29.385Z,25.32
2018-08-16T06:55:29.024Z,25.22
2018-08-16T06:56:30.472Z,25.13
2018-08-16T06:57:29.464Z,25.07
2018-08-16T06:58:31.052Z,24.92
2018-08-16T06:59:31.817Z,24.89
2018-08-16T07:00:29.694Z,24.84
2018-08-16T07:01:29.953Z,24.69
2018-08-16T07:02:29.672Z,24.48
2018-08-16T07:03:29.337Z,24.40
2018-08-16T07:04:29.031Z,24.28
2018-08-16T07:06:05.468Z,24.03
2018-08-16T07:07:05.404Z,23.92
2018-08-16T07:08:05.453Z,23.87
2018-08-16T07:09:05.350Z,23.84
2018-08-16T07:10:06.297Z,23.80
2018-08-16T07:11:06.326Z,23.78
2018-08-16T07:12:05.431Z,23.66
2018-08-16T07:13:05.653Z,23.63
2018-08-16T07:14:49.016Z,23.37
2018-08-16T07:15:49.711Z,23.31
2018-08-16T07:16:49.495Z,23.32
2018-08-16T07:17:53.470Z,23.32
2018-08-16T07:18:49.051Z,23.34
2018-08-16T07:19:50.195Z,23.37
2018-08-16T07:20:49.159Z,23.40
2018-08-16T07:21:50.459Z,23.48
2018-08-16T07:22:51.087Z,23.46
2018-08-16T07:23:49.872Z,23.44
2018-08-16T07:24:49.570Z,23.47
2018-08-16T07:25:49.380Z,23.47
2018-08-16T07:26:49.122Z,23.44
2018-08-16T07:27:50.285Z,23.27
2018-08-16T07:28:50.443Z,23.25
2018-08-16T07:29:49.408Z,23.32
2018-08-16T07:30:49.199Z,23.25
2018-08-16T07:31:50.278Z,23.20
2018-08-16T07:32:49.549Z,23.24
2018-08-16T07:33:49.569Z,23.23
2018-08-16T07:34:49.088Z,23.27
2018-08-16T07:35:49.776Z,23.34
2018-08-16T07:36:49.756Z,23.46
2018-08-16T07:37:49.513Z,23.54
2018-08-16T07:40:16.397Z,23.61
2018-08-16T07:41:17.082Z,23.58
2018-08-16T07:42:16.749Z,23.62
2018-08-16T07:43:38.751Z,23.73
2018-08-16T07:44:38.723Z,23.66
2018-08-16T07:45:38.919Z,23.68
2018-08-16T07:46:38.462Z,23.66
2018-08-16T07:47:39.452Z,23.74
2018-08-16T07:48:39.843Z,23.87
2018-08-16T07:49:38.941Z,23.93
2018-08-16T07:50:39.275Z,23.98
2018-08-16T07:51:39.580Z,24.17
2018-08-16T07:53:00.161Z,24.18
2018-08-16T07:54:00.873Z,24.13
2018-08-16T07:55:00.484Z,24.26
2018-08-16T07:56:01.295Z,24.45
2018-08-16T07:57:01.488Z,24.54
2018-08-16T07:58:07.176Z,24.54
2018-08-16T07:59:01.128Z,24.55
2018-08-16T08:00:11.688Z,24.68
2018-08-16T08:01:23.187Z,24.95
2018-08-16T08:02:22.801Z,25.13
2018-08-16T08:03:44.071Z,25.32
2018-08-16T08:04:44.845Z,25.32
2018-08-16T08:05:44.976Z,25.33
2018-08-16T08:06:44.791Z,25.51
2018-08-16T08:07:44.680Z,25.70
2018-08-16T08:08:44.999Z,25.91
2018-08-16T08:09:45.197Z,26.13
2018-08-16T08:10:44.372Z,26.56
2018-08-16T08:11:44.542Z,26.89
2018-08-16T08:12:44.520Z,27.32
2018-08-16T08:13:44.512Z,27.64
2018-08-16T08:14:44.214Z,27.65
2018-08-16T08:15:45.247Z,27.86
2018-08-16T08:16:44.395Z,28.26
2018-08-16T08:17:44.021Z,28.17
2018-08-16T08:18:44.596Z,28.42
2018-08-16T08:19:44.558Z,28.82
2018-08-16T08:20:44.460Z,28.94
2018-08-16T08:21:44.361Z,28.69
2018-08-16T08:23:06.097Z,28.30
2018-08-16T08:24:05.870Z,28.47
2018-08-16T08:25:05.781Z,28.79
2018-08-16T08:26:28.560Z,29.14
2018-08-16T08:27:29.728Z,29.29
2018-08-16T08:28:28.619Z,29.50
2018-08-16T08:29:30.162Z,29.73
2018-08-16T08:30:29.020Z,29.82
2018-08-16T08:31:28.840Z,29.76
2018-08-16T08:32:28.654Z,29.60
2018-08-16T08:33:29.734Z,29.63
2018-08-16T08:34:28.499Z,29.59
2018-08-16T08:35:29.197Z,29.76
2018-08-16T08:36:29.255Z,30.02
2018-08-16T08:37:28.943Z,30.19
2018-08-16T08:38:28.858Z,30.48
2018-08-16T08:39:28.657Z,30.85
2018-08-16T08:40:29.944Z,31.02
2018-08-16T08:41:29.125Z,31.12
2018-08-16T08:42:50.377Z,31.03
2018-08-16T08:43:51.143Z,31.12
2018-08-16T08:44:50.952Z,31.14
2018-08-16T08:46:55.688Z,31.09
2018-08-16T08:47:56.758Z,31.20
2018-08-16T08:48:56.791Z,31.28
2018-08-16T08:49:56.642Z,31.46
2018-08-16T08:51:39.448Z,31.84
2018-08-16T08:52:40.202Z,31.54
2018-08-16T08:53:40.369Z,31.03
2018-08-16T08:54:40.565Z,30.97
2018-08-16T08:55:39.875Z,31.15
2018-08-16T08:56:39.597Z,31.29
2018-08-16T08:57:42.827Z,31.05
2018-08-16T08:59:50.975Z,31.12
2018-08-16T09:00:49.048Z,31.09
2018-08-16T09:01:49.064Z,31.33
2018-08-16T09:02:49.208Z,30.83
2018-08-16T09:03:48.940Z,30.83
2018-08-16T09:04:50.736Z,31.12
2018-08-16T09:05:49.636Z,31.59
2018-08-16T09:07:10.383Z,32.07
2018-08-16T09:50:23.143Z,34.03
2018-08-16T09:51:23.047Z,34.42
2018-08-16T09:52:22.939Z,34.25
2018-08-16T09:53:22.700Z,33.92
2018-08-16T09:54:22.557Z,33.77
2018-08-16T09:55:23.751Z,33.89
2018-08-16T09:56:22.484Z,33.84
2018-08-16T09:57:44.947Z,33.95
2018-08-16T09:58:45.457Z,33.92
2018-08-16T09:59:45.284Z,34.14
2018-08-16T10:00:58.789Z,34.32
2018-08-16T10:01:45.589Z,34.71
2018-08-16T10:02:45.507Z,34.99
2018-08-16T10:03:45.127Z,34.95
2018-08-16T10:04:44.894Z,34.74
2018-08-16T10:05:45.693Z,34.99
2018-08-16T10:06:45.248Z,34.80
2018-08-16T10:07:45.066Z,34.54
2018-08-16T10:08:45.350Z,34.55
2018-08-16T10:09:46.424Z,34.71
2018-08-16T10:10:45.256Z,34.77
2018-08-16T10:11:45.418Z,34.86
2018-08-16T10:12:45.145Z,35.05
2018-08-16T10:13:44.902Z,35.18
2018-08-16T10:14:45.623Z,35.41
2018-08-16T10:15:45.256Z,35.49
2018-08-16T10:16:45.175Z,35.33
2018-08-16T10:17:45.036Z,35.42
2018-08-16T10:18:44.755Z,35.41
2018-08-16T10:19:45.485Z,35.07
2018-08-16T10:20:45.356Z,34.86
2018-08-16T10:21:45.396Z,34.06
2018-08-16T10:22:45.082Z,33.84
2018-08-16T10:23:44.992Z,33.43
2018-08-16T10:24:45.652Z,33.89
2018-08-16T10:25:45.407Z,33.87
2018-08-16T10:26:45.232Z,33.96
2018-08-16T10:27:45.373Z,34.23
2018-08-16T10:28:45.095Z,34.71
2018-08-16T10:29:44.811Z,35.04
2018-08-16T10:30:45.621Z,35.29
2018-08-16T10:32:06.934Z,35.66
2018-08-16T10:33:07.604Z,35.66
2018-08-16T10:34:07.340Z,35.88
2018-08-16T10:35:28.768Z,35.18
2018-08-16T10:36:28.944Z,35.10
2018-08-16T10:37:28.964Z,34.60
2018-08-16T10:38:29.070Z,34.58
2018-08-16T10:39:28.713Z,34.89
2018-08-16T10:40:28.630Z,35.00
2018-08-16T10:41:29.783Z,34.85
2018-08-16T10:42:28.510Z,34.74
2018-08-16T10:43:29.263Z,34.66
2018-08-16T10:44:28.912Z,34.52
2018-08-16T10:45:28.477Z,34.92
2018-08-16T10:46:29.845Z,34.97
2018-08-16T10:47:28.863Z,35.18
2018-08-16T10:48:28.668Z,35.29
2018-08-16T10:49:28.394Z,35.17
2018-08-16T10:50:29.306Z,35.27
2018-08-16T10:51:29.314Z,35.68
2018-08-16T10:52:29.014Z,35.88
2018-08-16T10:53:29.172Z,35.98
2018-08-16T10:54:50.693Z,36.04
2018-08-16T10:55:53.451Z,35.90
2018-08-16T10:57:14.307Z,35.46
2018-08-16T10:58:14.292Z,35.15
2018-08-16T10:59:14.427Z,35.10
2018-08-16T11:00:13.611Z,35.18
2018-08-16T11:01:16.510Z,34.83
2018-08-16T11:02:13.338Z,34.67
2018-08-16T11:03:13.211Z,34.86
2018-08-16T11:04:13.109Z,34.78
2018-08-16T11:05:13.845Z,34.89
2018-08-16T11:06:14.669Z,35.11
2018-08-16T11:07:13.849Z,35.30
2018-08-16T11:08:13.624Z,35.33
2018-08-16T11:09:13.289Z,35.31
2018-08-16T11:10:14.080Z,35.41
2018-08-16T11:11:14.333Z,35.56
2018-08-16T11:12:14.194Z,35.67
2018-08-16T11:13:14.579Z,35.92
2018-08-16T11:14:13.571Z,36.08
2018-08-16T11:15:13.415Z,35.85
2018-08-16T11:16:13.172Z,35.48
2018-08-16T11:17:13.762Z,35.17
2018-08-16T11:18:14.035Z,35.08
2018-08-16T11:19:13.652Z,35.08
2018-08-16T11:20:13.416Z,35.46
2018-08-16T11:21:13.116Z,35.48
2018-08-16T11:22:13.766Z,35.44
2018-08-16T11:23:56.482Z,35.61
2018-08-16T11:24:57.624Z,35.45
2018-08-16T11:26:19.272Z,35.33
2018-08-16T11:27:19.456Z,35.49
2018-08-16T11:28:19.278Z,35.67
2018-08-16T11:29:40.434Z,35.51
2018-08-16T11:30:41.583Z,35.44
2018-08-16T11:31:41.194Z,35.27
2018-08-16T11:32:40.753Z,35.29
2018-08-16T11:33:40.603Z,35.56
2018-08-16T11:34:41.385Z,35.97
2018-08-16T11:35:41.747Z,36.25
2018-08-16T11:36:41.301Z,36.35
2018-08-16T11:37:41.416Z,36.12
2018-08-16T11:38:41.158Z,36.01
2018-08-16T11:39:40.845Z,36.33
2018-08-16T11:40:40.811Z,36.52
2018-08-16T11:41:41.000Z,36.08
2018-08-16T11:42:40.809Z,36.12
2018-08-16T11:43:40.840Z,36.14
2018-08-16T11:44:40.622Z,36.17
2018-08-16T11:45:41.224Z,35.95
2018-08-16T11:46:40.996Z,36.04
2018-08-16T11:47:40.967Z,36.46
2018-08-16T11:48:40.682Z,36.76
2018-08-16T11:49:41.550Z,36.76
2018-08-16T11:50:41.597Z,36.77
2018-08-16T11:51:42.074Z,36.70
2018-08-16T11:52:40.843Z,36.72
2018-08-16T11:53:40.959Z,36.84
2018-08-16T11:54:40.917Z,37.01
2018-08-16T11:55:40.854Z,37.03
2018-08-16T11:56:41.594Z,37.30
2018-08-16T11:58:04.117Z,37.45
2018-08-16T11:59:05.333Z,37.47
2018-08-16T12:00:04.989Z,37.39
2018-08-16T12:01:28.533Z,37.47
2018-08-16T12:02:50.495Z,37.60
2018-08-16T12:04:25.360Z,37.77
2018-08-16T12:05:20.036Z,37.71
2018-08-16T12:06:21.074Z,37.60
2018-08-16T12:07:20.207Z,37.47
2018-08-16T12:08:20.474Z,37.11
2018-08-16T12:09:21.652Z,37.10
2018-08-16T12:10:20.273Z,37.02
2018-08-16T12:11:40.643Z,36.89
2018-08-16T12:12:41.821Z,36.67
2018-08-16T12:13:42.980Z,36.33
2018-08-16T12:15:04.955Z,36.37
2018-08-16T12:16:04.969Z,36.61
2018-08-16T12:17:05.143Z,36.91
2018-08-16T12:18:05.806Z,37.20
2018-08-16T12:19:04.958Z,37.37
2018-08-16T12:20:27.628Z,37.21
2018-08-16T12:21:26.977Z,36.89
2018-08-16T12:22:26.970Z,36.72
2018-08-16T12:23:26.901Z,36.35
2018-08-16T12:24:30.432Z,36.20
2018-08-16T12:25:27.072Z,35.68
2018-08-16T12:26:27.136Z,35.49
2018-08-16T12:27:27.323Z,35.70
2018-08-16T12:28:27.257Z,35.64
2018-08-16T12:29:27.248Z,35.22
2018-08-16T12:30:27.776Z,34.90
2018-08-16T12:31:27.461Z,34.88
2018-08-16T12:32:27.881Z,35.18
2018-08-16T12:33:26.915Z,35.46
2018-08-16T12:34:27.204Z,35.49
2018-08-16T12:36:12.872Z,35.48
2018-08-16T12:37:34.787Z,35.39
2018-08-16T12:38:35.005Z,35.67
2018-08-16T12:39:57.022Z,35.31
2018-08-16T12:40:57.554Z,35.30
2018-08-16T12:41:57.549Z,35.26
2018-08-16T12:42:57.879Z,35.44
2018-08-16T12:43:57.681Z,35.52
2018-08-16T12:44:58.304Z,35.45
2018-08-16T12:45:58.806Z,35.31
2018-08-16T12:46:57.687Z,35.11
2018-08-16T12:47:58.763Z,35.34
2018-08-16T12:48:57.356Z,35.56
2018-08-16T12:49:56.934Z,35.58
2018-08-16T12:50:58.615Z,35.79
2018-08-16T12:51:57.921Z,36.01
2018-08-16T12:52:57.823Z,36.16
2018-08-16T12:53:57.584Z,36.33
2018-08-16T12:54:57.719Z,36.33
2018-08-16T12:55:58.587Z,36.02
2018-08-16T12:56:57.420Z,35.70
2018-08-16T12:58:05.138Z,35.73
2018-08-16T12:58:57.071Z,35.88
2018-08-16T13:00:01.837Z,36.18
2018-08-16T13:01:23.435Z,36.58
2018-08-16T13:02:21.192Z,36.59
2018-08-16T13:03:21.891Z,36.14
2018-08-16T13:05:05.675Z,36.00
2018-08-16T13:06:05.407Z,36.18
2018-08-16T13:07:06.063Z,36.31
2018-08-16T13:08:06.071Z,36.14
2018-08-16T13:09:06.152Z,36.00
2018-08-16T13:10:05.931Z,35.97
2018-08-16T13:11:05.977Z,35.89
2018-08-16T13:12:06.166Z,35.90
2018-08-16T13:13:06.355Z,36.17
2018-08-16T13:14:06.161Z,36.42
2018-08-16T13:15:06.124Z,36.52
2018-08-16T13:16:06.042Z,36.31
2018-08-16T13:17:06.084Z,35.97
2018-08-16T13:18:06.058Z,35.86
2018-08-16T13:19:05.890Z,35.90
2018-08-16T13:20:06.163Z,35.67
2018-08-16T13:21:06.315Z,35.56
2018-08-16T13:22:05.288Z,35.58
2018-08-16T13:23:10.037Z,35.64
2018-08-16T13:24:09.508Z,35.83
2018-08-16T13:25:05.725Z,36.07
2018-08-16T13:26:05.870Z,36.23
2018-08-16T13:27:06.362Z,36.33
2018-08-16T13:28:05.245Z,36.35
2018-08-16T13:29:06.074Z,36.25
2018-08-16T13:30:05.723Z,35.95
2018-08-16T13:31:05.612Z,35.51
2018-08-16T13:32:05.763Z,35.33
2018-08-16T13:33:05.847Z,35.44
2018-08-16T13:34:07.024Z,35.63
2018-08-16T13:35:06.181Z,35.76
2018-08-16T13:36:06.343Z,35.80
2018-08-16T13:37:05.872Z,35.76
2018-08-16T13:38:05.612Z,35.64
2018-08-16T13:39:08.949Z,35.63
2018-08-16T13:40:05.702Z,35.64
2018-08-16T13:41:08.499Z,35.68
2018-08-16T13:42:07.969Z,35.60
2018-08-16T13:43:06.781Z,35.67
2018-08-16T13:44:05.948Z,35.60
2018-08-16T13:45:11.178Z,35.49
2018-08-16T13:46:05.969Z,35.66
2018-08-16T13:47:06.065Z,35.53
2018-08-16T13:48:05.816Z,35.46
2018-08-16T13:49:06.769Z,35.42
2018-08-16T13:50:05.876Z,35.07
2018-08-16T13:51:27.405Z,34.80
2018-08-16T13:52:28.044Z,34.73
2018-08-16T13:53:28.047Z,34.93
2018-08-16T13:54:27.964Z,35.23
2018-08-16T13:55:27.967Z,35.29
2018-08-16T13:56:50.194Z,35.27
2018-08-16T13:58:13.348Z,35.49
2018-08-16T13:59:13.949Z,35.49
2018-08-16T14:00:35.445Z,35.60
2018-08-16T14:01:36.375Z,35.42
2018-08-16T14:02:36.458Z,35.12
2018-08-16T14:03:36.197Z,35.18
2018-08-16T14:04:36.280Z,35.15
2018-08-16T14:06:43.418Z,35.07
2018-08-16T14:08:03.973Z,35.12
2018-08-16T14:09:04.655Z,34.96
2018-08-16T14:10:04.749Z,34.73
2018-08-16T14:11:05.313Z,34.85
2018-08-16T14:12:04.292Z,34.75
2018-08-16T14:13:04.610Z,34.57
2018-08-16T14:14:05.056Z,34.51
2018-08-16T14:15:05.674Z,34.57
2018-08-16T14:16:06.020Z,34.71
2018-08-16T14:17:04.469Z,34.78
2018-08-16T14:18:04.681Z,34.80